createdAt,value
2019-03-25T00:01:51.485Z,116.08
2019-03-25T00:04:19.953Z,119.40
2019-03-25T00:06:48.531Z,119.95
2019-03-25T00:09:16.701Z,121.90
2019-03-25T00:11:45.215Z,123.38
2019-03-25T00:14:13.134Z,120.00
2019-03-25T00:16:42.252Z,123.60
2019-03-25T00:19:10.702Z,132.00
2019-03-25T00:21:38.460Z,129.55
2019-03-25T00:24:08.219Z,131.30
2019-03-25T00:26:36.293Z,126.03
2019-03-25T00:29:04.848Z,127.27
2019-03-25T00:31:32.925Z,120.90
2019-03-25T00:34:01.081Z,113.65
2019-03-25T00:36:29.604Z,123.50
2019-03-25T00:38:57.726Z,119.55
2019-03-25T00:41:25.487Z,122.85
2019-03-25T00:43:53.252Z,114.35
2019-03-25T00:46:21.572Z,125.15
2019-03-25T00:48:50.057Z,116.17
2019-03-25T00:51:17.868Z,120.15
2019-03-25T00:53:46.018Z,112.42
2019-03-25T00:56:14.532Z,117.17
2019-03-25T00:58:44.109Z,118.37
2019-03-25T01:01:13.192Z,121.55
2019-03-25T01:03:41.136Z,120.05
2019-03-25T01:06:09.444Z,122.10
2019-03-25T01:08:37.769Z,114.72
2019-03-25T01:11:05.855Z,126.45
2019-03-25T01:13:34.720Z,121.15
2019-03-25T01:16:02.945Z,116.73
2019-03-25T01:18:31.376Z,120.75
2019-03-25T01:20:59.781Z,120.80
2019-03-25T01:23:28.335Z,118.28
2019-03-25T01:25:56.780Z,129.38
2019-03-25T01:28:24.822Z,118.02
2019-03-25T01:30:52.973Z,122.47
2019-03-25T01:33:21.795Z,125.95
2019-03-25T01:35:50.756Z,116.35
2019-03-25T01:38:18.732Z,117.57
2019-03-25T01:40:46.680Z,121.53
2019-03-25T01:43:15.046Z,112.95
2019-03-25T01:45:44.072Z,114.32
2019-03-25T01:48:12.556Z,119.22
2019-03-25T01:50:42.130Z,118.25
2019-03-25T01:53:12.544Z,111.90
2019-03-25T01:55:40.360Z,123.78
2019-03-25T01:58:08.247Z,124.18
2019-03-25T02:00:38.699Z,124.42
2019-03-25T02:03:08.557Z,129.50
2019-03-25T02:05:37.138Z,134.70
2019-03-25T02:08:05.111Z,131.25
2019-03-25T02:10:33.214Z,124.87
2019-03-25T02:13:01.421Z,130.03
2019-03-25T02:15:29.542Z,124.50
2019-03-25T02:17:57.423Z,125.50
2019-03-25T02:20:26.983Z,125.62
2019-03-25T02:22:55.503Z,131.10
2019-03-25T02:25:25.545Z,122.55
2019-03-25T02:27:53.456Z,112.10
2019-03-25T02:30:22.365Z,126.38
2019-03-25T02:32:50.547Z,119.35
2019-03-25T02:35:18.700Z,127.32
2019-03-25T02:37:46.678Z,118.30
2019-03-25T02:40:15.131Z,118.15
2019-03-25T02:42:43.342Z,110.12
2019-03-25T02:45:11.398Z,123.85
2019-03-25T02:47:39.573Z,105.52
2019-03-25T02:50:07.731Z,115.70
2019-03-25T02:52:37.536Z,110.17
2019-03-25T02:55:06.119Z,112.37
2019-03-25T02:57:34.210Z,116.75
2019-03-25T03:00:03.762Z,120.33
2019-03-25T03:02:32.194Z,121.05
2019-03-25T03:05:00.970Z,110.68
2019-03-25T03:07:29.828Z,114.52
2019-03-25T03:09:58.050Z,111.28
2019-03-25T03:12:27.935Z,107.47
2019-03-25T03:14:56.431Z,111.35
2019-03-25T03:17:27.035Z,109.70
2019-03-25T03:19:55.491Z,123.72
2019-03-25T03:22:23.856Z,119.17
2019-03-25T03:24:51.871Z,117.22
2019-03-25T03:27:21.020Z,113.52
2019-03-25T03:29:48.792Z,112.50
2019-03-25T03:32:16.861Z,109.92
2019-03-25T03:34:45.824Z,114.80
2019-03-25T03:37:13.837Z,112.57
2019-03-25T03:39:41.594Z,108.92
2019-03-25T03:42:10.510Z,95.17
2019-03-25T03:44:39.114Z,109.42
2019-03-25T03:47:06.955Z,106.03
2019-03-25T03:49:35.066Z,100.85
2019-03-25T03:52:03.764Z,101.42
2019-03-25T03:54:32.024Z,101.00
2019-03-25T03:57:00.918Z,86.55
2019-03-25T03:59:30.102Z,93.78
2019-03-25T04:01:58.719Z,97.30
2019-03-25T04:04:27.086Z,91.78
2019-03-25T04:06:56.424Z,87.55
2019-03-25T04:09:24.447Z,73.97
2019-03-25T04:11:52.824Z,80.70
2019-03-25T04:14:26.633Z,74.40
2019-03-25T04:16:55.166Z,78.30
2019-03-25T04:19:23.200Z,76.60
2019-03-25T04:21:52.241Z,78.55
2019-03-25T04:24:21.097Z,76.40
2019-03-25T04:26:49.251Z,71.50
2019-03-25T04:29:20.027Z,72.95
2019-03-25T04:34:21.941Z,68.90
2019-03-25T04:36:50.859Z,65.78
2019-03-25T04:39:18.862Z,52.38
2019-03-25T04:41:47.064Z,65.75
2019-03-25T04:44:15.055Z,66.10
2019-03-25T04:46:43.424Z,68.05
2019-03-25T04:49:12.121Z,70.47
2019-03-25T04:51:40.160Z,59.30
2019-03-25T04:54:10.332Z,65.50
2019-03-25T04:56:39.790Z,73.80
2019-03-25T04:59:08.265Z,70.80
2019-03-25T05:01:36.241Z,61.08
2019-03-25T05:04:05.267Z,70.72
2019-03-25T05:06:33.051Z,62.25
2019-03-25T05:09:02.121Z,76.55
2019-03-25T05:11:31.081Z,76.50
2019-03-25T05:13:59.293Z,63.13
2019-03-25T05:16:27.218Z,71.25
2019-03-25T05:18:57.997Z,80.60
2019-03-25T05:21:26.241Z,64.12
2019-03-25T05:23:54.111Z,65.12
2019-03-25T05:26:22.159Z,66.17
2019-03-25T05:28:50.980Z,67.65
2019-03-25T05:31:18.949Z,57.93
2019-03-25T05:33:47.787Z,54.27
2019-03-25T05:36:15.687Z,57.17
2019-03-25T05:38:44.597Z,51.58
2019-03-25T05:41:12.939Z,49.70
2019-03-25T05:43:41.053Z,49.53
2019-03-25T05:46:09.233Z,48.55
2019-03-25T05:48:38.826Z,38.30
2019-03-25T05:51:06.556Z,52.78
2019-03-25T05:53:36.555Z,43.05
2019-03-25T05:56:04.606Z,48.20
2019-03-25T05:58:33.436Z,46.33
2019-03-25T06:01:01.594Z,30.62
2019-03-25T06:03:30.628Z,20.92
2019-03-25T06:06:01.352Z,31.45
2019-03-25T06:10:56.467Z,36.33
2019-03-25T06:13:24.673Z,39.15
2019-03-25T06:15:54.057Z,34.75
2019-03-25T06:18:22.230Z,31.27
2019-03-25T06:20:50.682Z,26.90
2019-03-25T06:23:19.319Z,29.67
2019-03-25T06:25:47.357Z,34.13
2019-03-25T06:28:15.107Z,16.55
2019-03-25T06:30:43.968Z,11.00
2019-03-25T06:33:13.025Z,15.50
2019-03-25T06:35:41.067Z,20.37
2019-03-25T06:38:10.491Z,16.00
2019-03-25T06:40:38.356Z,16.35
2019-03-25T06:43:06.616Z,18.90
2019-03-25T06:45:34.987Z,18.15
2019-03-25T06:48:04.055Z,20.80
2019-03-25T06:50:33.559Z,14.75
2019-03-25T06:53:01.637Z,11.83
2019-03-25T06:55:29.385Z,15.75
2019-03-25T06:57:57.979Z,12.47
2019-03-25T07:00:25.821Z,14.80
2019-03-25T07:02:53.543Z,15.43
2019-03-25T07:05:21.861Z,4.17
2019-03-25T07:07:49.794Z,18.65
2019-03-25T07:10:29.838Z,21.62
2019-03-25T07:12:58.406Z,18.85
2019-03-25T07:15:28.088Z,12.73
2019-03-25T07:17:56.209Z,10.48
2019-03-25T07:20:24.636Z,14.37
2019-03-25T07:22:52.756Z,18.15
2019-03-25T07:25:21.457Z,11.68
2019-03-25T07:27:49.499Z,15.68
2019-03-25T07:30:18.574Z,18.00
2019-03-25T07:32:47.072Z,12.18
2019-03-25T07:35:15.164Z,15.13
2019-03-25T07:37:43.012Z,21.12
2019-03-25T07:40:11.619Z,18.15
2019-03-25T07:42:42.804Z,15.95
2019-03-25T07:45:10.875Z,13.50
2019-03-25T07:47:38.899Z,15.83
2019-03-25T07:50:06.893Z,18.10
2019-03-25T07:52:35.040Z,14.43
2019-03-25T07:55:03.457Z,14.43
2019-03-25T07:57:32.624Z,22.25
2019-03-25T08:00:00.714Z,16.48
2019-03-25T08:02:29.707Z,20.70
2019-03-25T08:04:57.880Z,22.10
2019-03-25T08:07:26.430Z,15.63
2019-03-25T08:09:54.735Z,16.73
2019-03-25T08:12:24.211Z,18.05
2019-03-25T08:14:52.617Z,22.42
2019-03-25T08:17:21.850Z,11.35
2019-03-25T08:19:50.482Z,18.32
2019-03-25T08:22:21.511Z,14.20
2019-03-25T08:24:49.725Z,20.27
2019-03-25T08:27:18.541Z,18.07
2019-03-25T08:29:46.326Z,18.27
2019-03-25T08:32:14.604Z,27.27
2019-03-25T08:34:43.346Z,22.20
2019-03-25T08:37:11.333Z,21.23
2019-03-25T08:39:40.471Z,22.00
2019-03-25T08:42:08.340Z,13.03
2019-03-25T08:44:36.478Z,22.93
2019-03-25T08:47:05.166Z,17.02
2019-03-25T08:49:33.043Z,23.32
2019-03-25T08:52:01.129Z,17.65
2019-03-25T08:54:29.207Z,10.30
2019-03-25T08:56:57.052Z,13.18
2019-03-25T08:59:26.168Z,9.63
2019-03-25T09:01:57.566Z,8.40
2019-03-25T09:04:26.876Z,11.48
2019-03-25T09:06:56.150Z,11.88
2019-03-25T09:09:23.951Z,11.08
2019-03-25T09:11:52.028Z,10.95
2019-03-25T09:14:22.153Z,11.85
2019-03-25T09:16:51.592Z,9.03
2019-03-25T09:19:20.531Z,10.58
2019-03-25T09:21:51.191Z,13.03
2019-03-25T09:24:19.447Z,14.38
2019-03-25T09:26:47.836Z,8.90
2019-03-25T09:29:16.287Z,12.47
2019-03-25T09:31:44.052Z,13.30
2019-03-25T09:34:13.815Z,16.23
2019-03-25T09:36:41.712Z,11.63
2019-03-25T09:39:09.456Z,11.12
2019-03-25T09:41:37.910Z,8.38
2019-03-25T09:44:05.916Z,9.73
2019-03-25T09:46:33.953Z,7.03
2019-03-25T09:49:02.035Z,10.95
2019-03-25T09:51:30.380Z,10.30
2019-03-25T09:53:58.864Z,10.65
2019-03-25T09:56:26.957Z,7.35
2019-03-25T09:58:55.953Z,7.00
2019-03-25T10:01:24.799Z,5.65
2019-03-25T10:03:52.787Z,10.28
2019-03-25T10:06:21.402Z,7.92
2019-03-25T10:08:49.704Z,6.95
2019-03-25T10:11:17.466Z,5.33
2019-03-25T10:13:47.086Z,7.70
2019-03-25T10:16:15.250Z,9.03
2019-03-25T10:18:43.027Z,5.67
2019-03-25T10:21:10.927Z,3.80
2019-03-25T10:23:38.981Z,7.12
2019-03-25T10:26:07.747Z,4.20
2019-03-25T10:28:47.532Z,7.28
2019-03-25T10:31:06.723Z,6.95
2019-03-25T10:33:34.782Z,3.75
2019-03-25T10:36:03.696Z,6.10
2019-03-25T10:38:31.446Z,8.08
2019-03-25T10:40:59.522Z,7.20
2019-03-25T10:43:27.873Z,9.60
2019-03-25T10:45:57.186Z,4.42
2019-03-25T10:48:25.559Z,8.38
2019-03-25T10:50:53.334Z,3.15
2019-03-25T10:53:21.815Z,9.10
2019-03-25T10:55:51.245Z,9.05
2019-03-25T10:58:19.347Z,8.53
2019-03-25T11:00:48.945Z,8.80
2019-03-25T11:03:17.362Z,2.98
2019-03-25T11:05:47.505Z,2.95
2019-03-25T11:08:15.261Z,3.50
2019-03-25T11:10:44.267Z,4.55
2019-03-25T11:13:12.296Z,9.13
2019-03-25T11:15:40.254Z,8.85
2019-03-25T11:18:08.780Z,4.03
2019-03-25T11:20:36.904Z,7.00
2019-03-25T11:23:05.118Z,6.22
2019-03-25T11:25:32.997Z,4.40
2019-03-25T11:28:01.587Z,8.58
2019-03-25T11:30:50.324Z,4.65
2019-03-25T11:33:18.262Z,5.97
2019-03-25T11:35:46.341Z,4.17
2019-03-25T11:38:15.933Z,5.28
2019-03-25T11:40:43.682Z,6.62
2019-03-25T11:43:12.247Z,4.42
2019-03-25T11:45:41.151Z,8.70
2019-03-25T11:48:10.102Z,3.95
2019-03-25T11:50:39.353Z,9.45
2019-03-25T11:53:07.564Z,5.08
2019-03-25T11:55:35.756Z,3.67
2019-03-25T11:58:03.711Z,3.75
2019-03-25T12:00:31.861Z,5.65
2019-03-25T12:02:59.696Z,5.25
2019-03-25T12:05:28.025Z,6.92
2019-03-25T12:07:56.358Z,7.50
2019-03-25T12:10:26.331Z,10.72
2019-03-25T12:12:54.116Z,7.58
2019-03-25T12:15:22.700Z,3.02
2019-03-25T12:17:51.583Z,2.92
2019-03-25T12:20:19.579Z,3.62
2019-03-25T12:22:47.755Z,4.75
2019-03-25T12:25:15.763Z,6.22
2019-03-25T12:27:43.910Z,5.15
2019-03-25T12:30:12.121Z,6.37
2019-03-25T12:32:39.853Z,2.33
2019-03-25T12:35:08.385Z,6.20
2019-03-25T12:37:37.772Z,3.35
2019-03-25T12:40:07.832Z,5.78
2019-03-25T12:42:36.557Z,5.60
2019-03-25T12:45:05.822Z,9.70
2019-03-25T12:47:33.997Z,6.37
2019-03-25T12:50:02.086Z,4.80
2019-03-25T12:52:30.533Z,5.12
2019-03-25T12:54:58.948Z,8.53
2019-03-25T12:57:27.945Z,6.12
2019-03-25T12:59:57.034Z,4.42
2019-03-25T13:02:25.547Z,4.97
2019-03-25T13:04:55.088Z,3.22
2019-03-25T13:07:22.865Z,3.83
2019-03-25T13:09:51.673Z,2.95
2019-03-25T13:12:20.999Z,3.15
2019-03-25T13:14:49.620Z,2.95
2019-03-25T13:17:19.363Z,2.87
2019-03-25T13:19:48.365Z,3.10
2019-03-25T13:22:16.383Z,3.87
2019-03-25T13:24:44.422Z,6.05
2019-03-25T13:27:12.941Z,6.08
2019-03-25T13:29:51.794Z,2.30
2019-03-25T13:32:12.210Z,5.28
2019-03-25T13:34:40.074Z,10.48
2019-03-25T13:37:08.283Z,4.35
2019-03-25T13:39:37.136Z,3.33
2019-03-25T13:42:05.116Z,3.65
2019-03-25T13:44:33.702Z,3.40
2019-03-25T13:47:03.174Z,2.37
2019-03-25T13:49:31.283Z,5.22
2019-03-25T13:51:59.849Z,6.42
2019-03-25T13:54:28.412Z,3.77
2019-03-25T13:56:57.712Z,4.55
2019-03-25T13:59:27.514Z,3.12
2019-03-25T14:01:55.860Z,5.03
2019-03-25T14:04:23.793Z,5.85
2019-03-25T14:06:52.048Z,5.75
2019-03-25T14:09:21.046Z,5.40
2019-03-25T14:11:49.931Z,5.15
2019-03-25T14:14:17.791Z,3.85
2019-03-25T14:16:46.316Z,3.98
2019-03-25T14:19:15.002Z,5.20
2019-03-25T14:21:43.556Z,6.95
2019-03-25T14:24:11.679Z,12.10
2019-03-25T14:26:39.933Z,3.33
2019-03-25T14:29:10.579Z,3.58
2019-03-25T14:31:38.341Z,5.78
2019-03-25T14:34:06.296Z,6.25
2019-03-25T14:36:35.330Z,7.12
2019-03-25T14:39:05.210Z,3.37
2019-03-25T14:41:38.087Z,4.85
2019-03-25T14:44:06.218Z,4.30
2019-03-25T14:46:34.117Z,3.20
2019-03-25T14:49:01.872Z,5.25
2019-03-25T14:51:30.572Z,4.92
2019-03-25T14:53:59.622Z,6.45
2019-03-25T14:56:28.701Z,5.00
2019-03-25T14:58:57.377Z,6.95
2019-03-25T15:01:25.259Z,5.90
2019-03-25T15:03:53.754Z,6.97
2019-03-25T15:06:24.536Z,6.45
2019-03-25T15:11:21.464Z,8.45
2019-03-25T15:13:49.193Z,9.93
2019-03-25T15:16:17.510Z,7.00
2019-03-25T15:18:45.560Z,7.78
2019-03-25T15:21:13.824Z,9.90
2019-03-25T15:23:43.239Z,7.42
2019-03-25T15:26:11.960Z,5.92
2019-03-25T15:28:39.708Z,7.42
2019-03-25T15:31:08.180Z,11.57
2019-03-25T15:33:38.562Z,12.47
2019-03-25T15:36:08.558Z,10.05
2019-03-25T15:38:37.789Z,8.70
2019-03-25T15:41:05.982Z,8.28
2019-03-25T15:43:34.105Z,6.15
2019-03-25T15:46:02.390Z,8.15
2019-03-25T15:48:31.717Z,8.40
2019-03-25T15:50:59.611Z,4.40
2019-03-25T15:53:28.843Z,4.00
2019-03-25T15:55:56.683Z,3.98
2019-03-25T15:58:26.207Z,3.42
2019-03-25T16:00:54.581Z,3.47
2019-03-25T16:03:23.304Z,6.33
2019-03-25T16:05:51.430Z,3.95
2019-03-25T16:08:20.030Z,5.10
2019-03-25T16:10:48.182Z,4.87
2019-03-25T16:13:16.525Z,3.35
2019-03-25T16:15:46.995Z,4.90
2019-03-25T16:18:34.749Z,7.17
2019-03-25T16:21:03.230Z,3.27
2019-03-25T16:23:31.006Z,6.53
2019-03-25T16:25:59.122Z,3.55
2019-03-25T16:28:26.940Z,3.42
2019-03-25T16:30:58.958Z,3.12
2019-03-25T16:33:28.214Z,5.35
2019-03-25T16:35:56.796Z,3.30
2019-03-25T16:38:25.672Z,4.58
2019-03-25T16:40:54.484Z,3.65
2019-03-25T16:43:23.194Z,4.03
2019-03-25T16:45:51.123Z,2.87
2019-03-25T16:48:19.547Z,1.17
2019-03-25T16:50:49.307Z,3.10
2019-03-25T16:53:17.285Z,1.07
2019-03-25T16:55:46.740Z,4.30
2019-03-25T16:58:14.581Z,4.05
2019-03-25T17:00:42.663Z,5.50
2019-03-25T17:03:11.131Z,3.52
2019-03-25T17:05:39.261Z,2.85
2019-03-25T17:08:07.480Z,2.70
2019-03-25T17:10:35.556Z,3.10
2019-03-25T17:13:03.629Z,3.20
2019-03-25T17:15:31.885Z,4.50
2019-03-25T17:18:00.020Z,5.22
2019-03-25T17:20:27.942Z,4.22
2019-03-25T17:22:56.336Z,3.67
2019-03-25T17:25:24.559Z,4.58
2019-03-25T17:27:52.644Z,5.12
2019-03-25T17:30:21.546Z,7.53
2019-03-25T17:32:49.995Z,7.28
2019-03-25T17:35:18.210Z,7.90
2019-03-25T17:37:48.896Z,9.38
2019-03-25T17:42:44.610Z,10.20
2019-03-25T17:45:13.330Z,6.58
2019-03-25T17:47:42.261Z,6.58
2019-03-25T17:50:17.482Z,7.97
2019-03-25T17:52:45.917Z,5.83
2019-03-25T17:55:13.802Z,5.25
2019-03-25T17:57:41.962Z,7.37
2019-03-25T18:00:11.226Z,4.83
2019-03-25T18:02:39.021Z,4.85
2019-03-25T18:05:08.672Z,6.87
2019-03-25T18:07:38.100Z,1.70
2019-03-25T18:10:07.875Z,2.90
2019-03-25T18:12:39.014Z,4.13
2019-03-25T18:15:09.587Z,3.35
2019-03-25T18:17:38.799Z,2.50
2019-03-25T18:20:18.041Z,3.12
2019-03-25T18:22:40.202Z,2.10
2019-03-25T18:25:09.586Z,2.58
2019-03-25T18:27:38.129Z,1.92
2019-03-25T18:30:08.184Z,2.95
2019-03-25T18:32:37.192Z,3.02
2019-03-25T18:35:05.225Z,3.05
2019-03-25T18:37:33.689Z,2.17
2019-03-25T18:40:02.293Z,4.22
2019-03-25T18:42:30.426Z,1.75
2019-03-25T18:45:02.220Z,2.87
2019-03-25T18:47:33.205Z,3.45
2019-03-25T18:50:02.089Z,2.77
2019-03-25T18:52:29.958Z,2.50
2019-03-25T18:54:58.946Z,4.53
2019-03-25T18:57:29.476Z,3.80
2019-03-25T19:00:03.464Z,2.80
2019-03-25T19:02:31.539Z,1.90
2019-03-25T19:05:01.323Z,2.62
2019-03-25T19:07:29.851Z,5.13
2019-03-25T19:09:58.398Z,4.08
2019-03-25T19:12:27.997Z,2.50
2019-03-25T19:14:55.940Z,4.00
2019-03-25T19:17:24.331Z,2.75
2019-03-25T19:19:52.405Z,2.62
2019-03-25T19:22:22.767Z,4.67
2019-03-25T19:24:51.495Z,2.70
2019-03-25T19:27:20.908Z,3.45
2019-03-25T19:29:51.870Z,3.62
2019-03-25T19:32:20.774Z,5.05
2019-03-25T19:34:49.430Z,3.77
2019-03-25T19:37:17.863Z,4.78
2019-03-25T19:39:46.964Z,4.22
2019-03-25T19:42:15.252Z,4.72
2019-03-25T19:44:43.904Z,2.83
2019-03-25T19:47:12.474Z,3.22
2019-03-25T19:49:41.683Z,4.30
2019-03-25T19:52:09.803Z,3.72
2019-03-25T19:54:38.374Z,4.08
2019-03-25T19:57:06.223Z,5.05
2019-03-25T19:59:35.204Z,2.75
2019-03-25T20:02:03.963Z,4.22
2019-03-25T20:04:31.966Z,4.37
2019-03-25T20:06:59.792Z,5.05
2019-03-25T20:09:28.434Z,4.75
2019-03-25T20:11:56.520Z,4.58
2019-03-25T20:14:25.384Z,4.12
2019-03-25T20:16:53.490Z,5.22
2019-03-25T20:19:22.807Z,5.80
2019-03-25T20:21:51.401Z,8.47
2019-03-25T20:24:20.553Z,6.53
2019-03-25T20:26:50.298Z,5.25
2019-03-25T20:29:19.146Z,6.20
2019-03-25T20:31:47.172Z,6.60
2019-03-25T20:34:15.236Z,6.62
2019-03-25T20:36:44.608Z,6.12
2019-03-25T20:39:13.257Z,9.55
2019-03-25T20:41:42.469Z,11.80
2019-03-25T20:44:11.430Z,5.90
2019-03-25T20:46:39.997Z,7.53
2019-03-25T20:49:08.308Z,9.73
2019-03-25T20:51:36.593Z,6.30
2019-03-25T20:54:05.538Z,5.75
2019-03-25T20:56:35.741Z,8.03
2019-03-25T20:59:04.777Z,7.20
2019-03-25T21:01:32.922Z,4.05
2019-03-25T21:04:01.647Z,9.30
2019-03-25T21:06:30.463Z,4.87
2019-03-25T21:08:58.456Z,5.05
2019-03-25T21:11:26.656Z,4.28
2019-03-25T21:13:54.754Z,4.97
2019-03-25T21:16:22.860Z,9.50
2019-03-25T21:18:52.481Z,5.33
2019-03-25T21:21:21.506Z,5.17
2019-03-25T21:23:52.352Z,10.05
2019-03-25T21:26:20.631Z,4.87
2019-03-25T21:28:49.177Z,7.00
2019-03-25T21:31:17.778Z,6.40
2019-03-25T21:33:45.965Z,7.05
2019-03-25T21:36:15.223Z,6.60
2019-03-25T21:38:44.038Z,9.60
2019-03-25T21:41:18.638Z,7.85
2019-03-25T21:43:46.687Z,8.70
2019-03-25T21:46:14.759Z,9.33
2019-03-25T21:48:43.098Z,6.33
2019-03-25T21:51:11.809Z,9.63
2019-03-25T21:53:40.224Z,8.73
2019-03-25T21:56:08.386Z,9.50
2019-03-25T21:58:36.691Z,6.95
2019-03-25T22:01:06.116Z,12.75
2019-03-25T22:03:35.542Z,10.68
2019-03-25T22:06:07.510Z,10.48
2019-03-25T22:08:37.472Z,8.35
2019-03-25T22:11:06.096Z,10.38
2019-03-25T22:13:35.534Z,6.95
2019-03-25T22:16:03.674Z,11.28
2019-03-25T22:18:32.205Z,10.50
2019-03-25T22:21:01.000Z,12.20
2019-03-25T22:23:28.822Z,14.33
2019-03-25T22:25:57.543Z,9.98
2019-03-25T22:28:26.708Z,12.37
2019-03-25T22:30:54.876Z,10.35
2019-03-25T22:33:26.000Z,11.55
2019-03-25T22:35:53.437Z,13.10
2019-03-25T22:38:21.228Z,14.23
2019-03-25T22:40:49.710Z,12.15
2019-03-25T22:43:18.740Z,14.98
2019-03-25T22:45:47.634Z,9.93
2019-03-25T22:48:16.379Z,9.95
2019-03-25T22:50:45.540Z,12.00
2019-03-25T22:53:16.052Z,10.10
2019-03-25T22:58:12.089Z,15.05
2019-03-25T23:00:47.131Z,16.32
2019-03-25T23:03:15.698Z,12.85
2019-03-25T23:05:44.205Z,16.20
2019-03-25T23:08:12.953Z,15.00
2019-03-25T23:10:40.869Z,16.30
2019-03-25T23:13:09.261Z,17.02
2019-03-25T23:15:36.995Z,16.60
2019-03-25T23:18:05.820Z,19.80
2019-03-25T23:20:33.923Z,18.80
2019-03-25T23:23:02.134Z,20.95
2019-03-25T23:25:30.064Z,17.15
2019-03-25T23:27:57.935Z,15.43
2019-03-25T23:30:26.836Z,19.25
2019-03-25T23:32:55.502Z,20.77
2019-03-25T23:35:23.674Z,18.32
2019-03-25T23:37:51.483Z,21.23
2019-03-25T23:40:19.948Z,18.60
2019-03-25T23:42:48.072Z,18.62
2019-03-25T23:45:15.840Z,22.77
2019-03-25T23:47:44.887Z,21.57
2019-03-25T23:50:12.792Z,18.75
2019-03-25T23:52:41.147Z,21.37
2019-03-25T23:55:09.174Z,23.42
2019-03-25T23:57:37.580Z,20.80
